createdAt,value
2023-05-18T00:00:16.345Z,100364.58
2023-05-18T00:01:20.405Z,100355.82
2023-05-18T00:02:24.884Z,100368.38
2023-05-18T00:03:28.921Z,100363.59
2023-05-18T00:04:35.088Z,100377.00
2023-05-18T00:05:38.587Z,100364.58
2023-05-18T00:06:43.135Z,100369.64
2023-05-18T00:08:51.929Z,100376.42
2023-05-18T00:09:54.432Z,100369.36
2023-05-18T00:10:58.333Z,100366.23
2023-05-18T00:12:02.557Z,100366.23
2023-05-18T00:13:11.299Z,100373.55
2023-05-18T00:14:15.620Z,100370.88
2023-05-18T00:15:21.261Z,100366.36
2023-05-18T00:16:24.608Z,100369.89
2023-05-18T00:17:28.692Z,100366.09
2023-05-18T00:18:32.558Z,100370.61
2023-05-18T00:19:38.761Z,100369.77
2023-05-18T00:20:44.164Z,100369.05
2023-05-18T00:21:48.390Z,100367.34
2023-05-18T00:22:51.907Z,100370.16
2023-05-18T00:23:55.538Z,100365.78
2023-05-18T00:24:58.910Z,100371.72
2023-05-18T00:26:07.021Z,100373.69
2023-05-18T00:27:10.836Z,100367.08
2023-05-18T00:28:14.194Z,100366.08
2023-05-18T00:29:17.061Z,100363.41
2023-05-18T00:30:20.631Z,100373.01
2023-05-18T00:31:24.185Z,100365.95
2023-05-18T00:32:28.512Z,100364.97
2023-05-18T00:33:32.079Z,100360.42
2023-05-18T00:34:36.677Z,100365.10
2023-05-18T00:35:40.453Z,100360.72
2023-05-18T00:36:44.080Z,100363.27
2023-05-18T00:37:47.473Z,100360.01
2023-05-18T00:38:51.693Z,100360.27
2023-05-18T00:39:55.201Z,100357.99
2023-05-18T00:40:58.810Z,100357.59
2023-05-18T00:42:02.512Z,100359.42
2023-05-18T00:43:07.710Z,100358.71
2023-05-18T00:44:11.314Z,100360.67
2023-05-18T00:45:15.228Z,100354.77
2023-05-18T00:46:17.745Z,100358.98
2023-05-18T00:47:21.405Z,100360.13
2023-05-18T00:48:24.436Z,100358.42
2023-05-18T00:49:31.557Z,100354.05
2023-05-18T00:50:36.096Z,100358.56
2023-05-18T00:51:41.607Z,100356.86
2023-05-18T00:52:47.999Z,100359.67
2023-05-18T00:53:52.974Z,100356.41
2023-05-18T00:54:59.564Z,100353.86
2023-05-18T00:56:03.677Z,100360.47
2023-05-18T00:57:07.373Z,100359.91
2023-05-18T00:58:11.338Z,100355.53
2023-05-18T00:59:15.736Z,100364.55
2023-05-18T01:00:22.163Z,100355.93
2023-05-18T01:01:31.974Z,100362.95
2023-05-18T01:02:37.577Z,100366.74
2023-05-18T01:03:42.055Z,100366.74
2023-05-18T01:04:45.531Z,100368.70
2023-05-18T01:05:57.129Z,100369.55
2023-05-18T01:07:02.605Z,100369.68
2023-05-18T01:08:06.423Z,100370.06
2023-05-18T01:09:31.769Z,100367.39
2023-05-18T01:10:37.051Z,100362.59
2023-05-18T01:11:41.821Z,100358.60
2023-05-18T01:12:53.777Z,100359.58
2023-05-18T01:14:08.377Z,100366.37
2023-05-18T01:15:15.828Z,100362.72
2023-05-18T01:16:23.692Z,100366.63
2023-05-18T01:17:41.045Z,100365.78
2023-05-18T01:20:08.444Z,100359.06
2023-05-18T01:21:19.473Z,100362.18
2023-05-18T01:22:44.775Z,100365.48
2023-05-18T01:23:55.740Z,100365.70
2023-05-18T01:25:03.981Z,100366.33
2023-05-18T01:26:18.965Z,100366.04
2023-05-18T01:27:27.812Z,100369.01
2023-05-18T01:28:35.409Z,100371.94
2023-05-18T01:29:39.638Z,100375.82
2023-05-18T01:30:43.059Z,100377.31
2023-05-18T01:31:46.931Z,100378.70
2023-05-18T01:32:50.205Z,100374.58
2023-05-18T01:33:54.168Z,100377.98
2023-05-18T01:34:57.978Z,100379.93
2023-05-18T01:36:01.916Z,100375.68
2023-05-18T01:37:05.582Z,100379.46
2023-05-18T01:38:09.117Z,100387.36
2023-05-18T01:39:16.355Z,100379.52
2023-05-18T01:40:20.896Z,100379.21
2023-05-18T01:41:28.195Z,100388.33
2023-05-18T01:42:35.647Z,100382.03
2023-05-18T01:43:44.294Z,100384.99
2023-05-18T01:44:49.606Z,100380.86
2023-05-18T01:45:55.863Z,100378.92
2023-05-18T01:47:01.697Z,100381.19
2023-05-18T01:48:06.040Z,100383.86
2023-05-18T01:49:11.383Z,100378.06
2023-05-18T01:50:15.880Z,100378.19
2023-05-18T01:51:20.308Z,100375.89
2023-05-18T01:52:31.879Z,100380.51
2023-05-18T01:53:39.024Z,100383.59
2023-05-18T01:54:45.154Z,100384.44
2023-05-18T01:55:49.966Z,100386.11
2023-05-18T01:56:55.349Z,100385.01
2023-05-18T01:57:59.415Z,100383.71
2023-05-18T01:59:06.858Z,100384.08
2023-05-18T02:00:11.050Z,100370.71
2023-05-18T02:01:21.889Z,100379.46
2023-05-18T02:02:25.341Z,100379.22
2023-05-18T02:03:28.540Z,100380.76
2023-05-18T02:04:34.232Z,100378.69
2023-05-18T02:05:41.105Z,100379.66
2023-05-18T02:06:45.628Z,100385.73
2023-05-18T02:07:49.026Z,100381.11
2023-05-18T02:08:52.740Z,100389.02
2023-05-18T02:09:57.503Z,100385.23
2023-05-18T02:11:02.619Z,100384.27
2023-05-18T02:12:06.812Z,100385.23
2023-05-18T02:13:09.787Z,100386.94
2023-05-18T02:14:13.421Z,100389.37
2023-05-18T02:15:17.024Z,100384.02
2023-05-18T02:16:19.614Z,100384.99
2023-05-18T02:17:25.093Z,100390.46
2023-05-18T02:18:29.813Z,100389.98
2023-05-18T02:19:34.061Z,100400.63
2023-05-18T02:20:39.851Z,100398.36
2023-05-18T02:21:44.314Z,100398.86
2023-05-18T02:22:47.932Z,100398.86
2023-05-18T02:23:51.731Z,100411.02
2023-05-18T02:24:54.612Z,100405.09
2023-05-18T02:25:58.545Z,100401.58
2023-05-18T02:27:03.916Z,100400.08
2023-05-18T02:28:07.416Z,100403.71
2023-05-18T02:29:12.136Z,100398.31
2023-05-18T02:30:16.219Z,100404.76
2023-05-18T02:31:19.731Z,100404.88
2023-05-18T02:32:23.829Z,100404.63
2023-05-18T02:33:27.348Z,100405.80
2023-05-18T02:34:35.014Z,100408.58
2023-05-18T02:35:38.744Z,100407.48
2023-05-18T02:36:46.835Z,100402.56
2023-05-18T02:37:50.664Z,100396.58
2023-05-18T02:38:55.542Z,100402.24
2023-05-18T02:40:00.282Z,100403.18
2023-05-18T02:41:03.894Z,100398.88
2023-05-18T02:42:07.922Z,100405.86
2023-05-18T02:43:12.914Z,100409.37
2023-05-18T02:44:16.097Z,100399.53
2023-05-18T02:45:22.772Z,100409.47
2023-05-18T02:46:28.389Z,100411.88
2023-05-18T02:47:32.965Z,100415.12
2023-05-18T02:48:37.189Z,100416.09
2023-05-18T02:49:40.753Z,100417.80
2023-05-18T02:50:47.606Z,100420.93
2023-05-18T02:51:51.612Z,100421.78
2023-05-18T02:52:56.446Z,100419.49
2023-05-18T02:53:59.853Z,100421.38
2023-05-18T02:55:04.292Z,100425.38
2023-05-18T02:56:13.648Z,100428.13
2023-05-18T02:57:18.738Z,100429.02
2023-05-18T02:58:24.937Z,100428.64
2023-05-18T02:59:39.242Z,100424.81
2023-05-18T03:00:42.695Z,100427.78
2023-05-18T03:01:46.363Z,100421.98
2023-05-18T03:02:49.969Z,100421.99
2023-05-18T03:03:53.324Z,100423.96
2023-05-18T03:04:57.268Z,100426.09
2023-05-18T03:06:06.448Z,100422.83
2023-05-18T03:07:10.367Z,100425.68
2023-05-18T03:08:13.993Z,100424.81
2023-05-18T03:09:21.606Z,100420.65
2023-05-18T03:10:25.739Z,100416.77
2023-05-18T03:11:28.673Z,100421.91
2023-05-18T03:12:31.961Z,100422.38
2023-05-18T03:13:35.126Z,100432.84
2023-05-18T03:14:38.413Z,100432.30
2023-05-18T03:15:43.837Z,100422.28
2023-05-18T03:16:49.601Z,100428.62
2023-05-18T03:17:53.222Z,100432.30
2023-05-18T03:18:59.505Z,100425.37
2023-05-18T03:20:06.737Z,100431.59
2023-05-18T03:21:17.512Z,100430.05
2023-05-18T03:22:22.579Z,100440.51
2023-05-18T03:23:28.939Z,100431.88
2023-05-18T03:24:35.523Z,100439.09
2023-05-18T03:25:38.112Z,100442.48
2023-05-18T03:26:45.899Z,100441.20
2023-05-18T03:27:49.593Z,100440.78
2023-05-18T03:28:53.314Z,100444.33
2023-05-18T03:30:00.208Z,100439.95
2023-05-18T03:31:05.413Z,100439.66
2023-05-18T03:32:09.588Z,100441.92
2023-05-18T03:33:13.866Z,100446.00
2023-05-18T03:34:19.801Z,100445.15
2023-05-18T03:35:25.053Z,100445.29
2023-05-18T03:36:28.506Z,100443.45
2023-05-18T03:37:33.749Z,100445.88
2023-05-18T03:38:37.387Z,100449.56
2023-05-18T03:39:46.040Z,100451.68
2023-05-18T03:40:49.760Z,100447.26
2023-05-18T03:41:53.188Z,100441.18
2023-05-18T03:42:57.060Z,100450.13
2023-05-18T03:43:59.776Z,100447.41
2023-05-18T03:45:05.424Z,100453.60
2023-05-18T03:46:08.830Z,100447.52
2023-05-18T03:47:12.676Z,100454.45
2023-05-18T03:48:16.512Z,100443.13
2023-05-18T03:49:19.927Z,100443.13
2023-05-18T03:50:23.606Z,100455.19
2023-05-18T03:51:28.745Z,100453.91
2023-05-18T03:52:36.542Z,100451.09
2023-05-18T03:53:43.516Z,100450.66
2023-05-18T03:54:47.312Z,100448.79
2023-05-18T03:55:52.384Z,100450.06
2023-05-18T03:56:55.461Z,100444.27
2023-05-18T03:58:00.225Z,100447.77
2023-05-18T03:59:04.882Z,100449.08
2023-05-18T04:00:12.565Z,100452.36
2023-05-18T04:01:23.893Z,100457.00
2023-05-18T04:02:27.663Z,100449.32
2023-05-18T04:03:35.913Z,100452.52
2023-05-18T04:04:46.977Z,100451.38
2023-05-18T04:05:52.031Z,100451.47
2023-05-18T04:06:55.412Z,100451.88
2023-05-18T04:07:58.406Z,100459.05
2023-05-18T04:09:04.147Z,100448.75
2023-05-18T04:10:09.669Z,100447.99
2023-05-18T04:11:17.700Z,100457.76
2023-05-18T04:12:21.197Z,100447.97
2023-05-18T04:13:24.375Z,100452.50
2023-05-18T04:14:27.794Z,100456.88
2023-05-18T04:15:31.871Z,100459.39
2023-05-18T04:16:36.019Z,100458.18
2023-05-18T04:17:44.310Z,100463.07
2023-05-18T04:18:47.891Z,100463.82
2023-05-18T04:19:50.853Z,100464.67
2023-05-18T04:20:55.863Z,100469.92
2023-05-18T04:22:01.380Z,100472.13
2023-05-18T04:23:05.969Z,100471.34
2023-05-18T04:24:09.563Z,100474.00
2023-05-18T04:25:15.137Z,100476.31
2023-05-18T04:26:25.040Z,100483.95
2023-05-18T04:27:31.464Z,100491.31
2023-05-18T04:28:35.393Z,100495.92
2023-05-18T04:29:44.753Z,100492.55
2023-05-18T04:30:49.285Z,100503.43
2023-05-18T04:31:54.084Z,100518.38
2023-05-18T04:32:58.005Z,100519.45
2023-05-18T04:34:01.379Z,100528.73
2023-05-18T04:35:09.898Z,100535.58
2023-05-18T04:36:13.396Z,100533.55
2023-05-18T04:37:17.533Z,100532.11
2023-05-18T04:38:26.767Z,100529.68
2023-05-18T04:39:30.192Z,100535.94
2023-05-18T04:40:37.871Z,100531.81
2023-05-18T04:41:42.928Z,100539.73
2023-05-18T04:42:48.856Z,100544.91
2023-05-18T04:44:00.703Z,100546.97
2023-05-18T04:45:07.568Z,100546.38
2023-05-18T04:46:16.460Z,100545.47
2023-05-18T04:47:23.324Z,100548.63
2023-05-18T04:48:26.946Z,100546.13
2023-05-18T04:49:36.561Z,100550.89
2023-05-18T04:50:40.853Z,100558.26
2023-05-18T04:51:44.566Z,100556.83
2023-05-18T04:52:49.092Z,100554.34
2023-05-18T04:53:56.482Z,100567.39
2023-05-18T04:54:58.942Z,100575.59
2023-05-18T04:56:02.340Z,100573.25
2023-05-18T04:57:05.873Z,100569.56
2023-05-18T04:58:13.852Z,100579.28
2023-05-18T04:59:20.180Z,100571.77
2023-05-18T05:00:32.763Z,100578.91
2023-05-18T05:01:36.317Z,100576.44
2023-05-18T05:02:40.507Z,100579.76
2023-05-18T05:03:44.711Z,100584.74
2023-05-18T05:04:48.661Z,100583.48
2023-05-18T05:05:52.580Z,100578.17
2023-05-18T05:06:56.288Z,100579.13
2023-05-18T05:07:59.804Z,100583.15
2023-05-18T05:09:02.837Z,100581.55
2023-05-18T05:10:11.620Z,100584.76
2023-05-18T05:11:17.650Z,100587.72
2023-05-18T05:12:21.232Z,100591.84
2023-05-18T05:13:25.171Z,100595.30
2023-05-18T05:14:28.894Z,100602.87
2023-05-18T05:15:36.466Z,100599.76
2023-05-18T05:16:41.937Z,100595.68
2023-05-18T05:17:50.192Z,100600.59
2023-05-18T05:18:53.878Z,100593.27
2023-05-18T05:20:00.100Z,100600.14
2023-05-18T05:21:04.519Z,100595.88
2023-05-18T05:22:07.502Z,100600.19
2023-05-18T05:23:12.996Z,100599.94
2023-05-18T05:24:18.292Z,100607.20
2023-05-18T05:25:24.081Z,100608.33
2023-05-18T05:26:27.578Z,100609.10
2023-05-18T05:27:32.661Z,100607.91
2023-05-18T05:28:36.032Z,100615.09
2023-05-18T05:29:38.746Z,100611.20
2023-05-18T05:30:41.082Z,100613.75
2023-05-18T05:31:46.615Z,100615.77
2023-05-18T05:32:50.293Z,100613.13
2023-05-18T05:33:53.886Z,100610.23
2023-05-18T05:35:01.137Z,100618.11
2023-05-18T05:36:07.287Z,100611.23
2023-05-18T05:37:10.985Z,100615.20
2023-05-18T05:38:17.760Z,100618.59
2023-05-18T05:39:21.457Z,100618.34
2023-05-18T05:40:27.500Z,100620.50
2023-05-18T05:41:33.362Z,100621.66
2023-05-18T05:42:36.942Z,100625.30
2023-05-18T05:43:41.417Z,100624.77
2023-05-18T05:44:47.494Z,100615.05
2023-05-18T05:45:50.000Z,100628.08
2023-05-18T05:46:55.144Z,100622.27
2023-05-18T05:49:13.669Z,100630.28
2023-05-18T05:50:18.108Z,100628.09
2023-05-18T05:51:23.492Z,100631.12
2023-05-18T05:52:27.685Z,100643.56
2023-05-18T05:53:32.749Z,100638.33
2023-05-18T05:54:38.185Z,100639.20
2023-05-18T05:55:42.537Z,100632.00
2023-05-18T05:56:46.773Z,100637.80
2023-05-18T05:57:52.051Z,100640.30
2023-05-18T05:58:55.869Z,100645.36
2023-05-18T05:59:59.267Z,100647.68
2023-05-18T06:01:03.398Z,100644.25
2023-05-18T06:02:07.340Z,100644.95
2023-05-18T06:03:11.318Z,100654.17
2023-05-18T06:04:17.203Z,100651.55
2023-05-18T06:05:20.867Z,100651.02
2023-05-18T06:06:23.748Z,100647.16
2023-05-18T06:07:30.387Z,100647.44
2023-05-18T06:08:33.832Z,100648.02
2023-05-18T06:09:38.656Z,100656.38
2023-05-18T06:10:44.565Z,100644.46
2023-05-18T06:11:49.000Z,100650.60
2023-05-18T06:12:53.048Z,100652.77
2023-05-18T06:13:58.516Z,100655.55
2023-05-18T06:15:02.125Z,100656.31
2023-05-18T06:16:07.698Z,100655.22
2023-05-18T06:17:12.813Z,100653.64
2023-05-18T06:18:18.876Z,100650.73
2023-05-18T06:19:24.216Z,100651.73
2023-05-18T06:20:28.440Z,100651.88
2023-05-18T06:21:32.697Z,100650.51
2023-05-18T06:22:37.316Z,100646.76
2023-05-18T06:24:02.436Z,100640.59
2023-05-18T06:25:08.883Z,100653.48
2023-05-18T06:26:14.460Z,100653.81
2023-05-18T06:27:30.936Z,100655.78
2023-05-18T06:28:36.299Z,100649.20
2023-05-18T06:29:44.613Z,100651.66
2023-05-18T06:30:59.497Z,100653.84
2023-05-18T06:32:15.196Z,100658.33
2023-05-18T06:33:23.961Z,100661.09
2023-05-18T06:34:28.090Z,100661.94
2023-05-18T06:35:32.338Z,100659.06
2023-05-18T06:36:35.757Z,100665.00
2023-05-18T06:37:40.324Z,100668.56
2023-05-18T06:38:44.115Z,100672.59
2023-05-18T06:39:48.127Z,100672.08
2023-05-18T06:40:50.676Z,100669.39
2023-05-18T06:41:54.507Z,100666.31
2023-05-18T06:43:00.928Z,100667.09
2023-05-18T06:44:10.184Z,100671.05
2023-05-18T06:45:14.809Z,100668.06
2023-05-18T06:46:27.455Z,100672.73
2023-05-18T06:47:35.304Z,100674.12
2023-05-18T06:48:39.883Z,100673.77
2023-05-18T06:49:43.508Z,100675.34
2023-05-18T06:50:46.533Z,100671.89
2023-05-18T06:51:50.392Z,100671.24
2023-05-18T06:52:56.398Z,100666.20
2023-05-18T06:54:00.323Z,100662.27
2023-05-18T06:55:07.797Z,100673.02
2023-05-18T06:56:15.718Z,100665.50
2023-05-18T06:57:22.315Z,100656.41
2023-05-18T06:58:27.427Z,100664.39
2023-05-18T06:59:39.163Z,100669.94
2023-05-18T07:00:43.483Z,100666.34
2023-05-18T07:01:47.605Z,100671.11
2023-05-18T07:02:52.679Z,100671.81
2023-05-18T07:03:57.950Z,100680.44
2023-05-18T07:05:06.286Z,100685.39
2023-05-18T07:06:09.526Z,100674.46
2023-05-18T07:07:18.002Z,100672.19
2023-05-18T07:08:21.816Z,100672.23
2023-05-18T07:09:26.306Z,100683.42
2023-05-18T07:10:29.459Z,100674.94
2023-05-18T07:11:34.001Z,100676.90
2023-05-18T07:12:39.593Z,100678.34
2023-05-18T07:13:44.198Z,100683.36
2023-05-18T07:14:49.538Z,100668.00
2023-05-18T07:15:53.047Z,100675.22
2023-05-18T07:16:55.816Z,100681.93
2023-05-18T07:18:00.281Z,100679.71
2023-05-18T07:19:06.465Z,100672.50
2023-05-18T07:20:10.979Z,100680.81
2023-05-18T07:21:13.293Z,100681.28
2023-05-18T07:22:16.995Z,100676.02
2023-05-18T07:23:21.912Z,100687.64
2023-05-18T07:24:28.467Z,100685.80
2023-05-18T07:25:32.301Z,100682.84
2023-05-18T07:26:35.958Z,100690.03
2023-05-18T07:27:39.835Z,100682.41
2023-05-18T07:28:43.347Z,100683.04
2023-05-18T07:29:46.628Z,100675.28
2023-05-18T07:30:52.022Z,100687.44
2023-05-18T07:31:55.304Z,100677.47
2023-05-18T07:32:58.240Z,100680.77
2023-05-18T07:34:02.741Z,100683.34
2023-05-18T07:35:07.045Z,100680.02
2023-05-18T07:36:10.484Z,100684.17
2023-05-18T07:37:17.348Z,100689.96
2023-05-18T07:38:20.679Z,100677.95
2023-05-18T07:39:26.372Z,100682.62
2023-05-18T07:40:30.619Z,100681.01
2023-05-18T07:41:34.285Z,100684.30
2023-05-18T07:42:39.457Z,100686.78
2023-05-18T07:43:44.933Z,100679.00
2023-05-18T07:44:48.123Z,100677.87
2023-05-18T07:45:53.003Z,100688.00
2023-05-18T07:46:57.807Z,100678.97
2023-05-18T07:48:03.292Z,100680.16
2023-05-18T07:49:07.276Z,100683.55
2023-05-18T07:50:10.577Z,100676.59
2023-05-18T07:51:15.332Z,100680.37
2023-05-18T07:52:18.835Z,100681.02
2023-05-18T07:54:36.508Z,100673.33
2023-05-18T07:55:40.112Z,100684.80
2023-05-18T07:56:44.843Z,100684.69
2023-05-18T07:57:48.356Z,100677.17
2023-05-18T07:58:51.981Z,100684.13
2023-05-18T07:59:55.528Z,100675.98
2023-05-18T08:00:59.301Z,100671.81
2023-05-18T08:02:01.598Z,100683.79
2023-05-18T08:03:05.977Z,100674.86
2023-05-18T08:04:09.499Z,100682.96
2023-05-18T08:05:13.536Z,100684.30
2023-05-18T08:06:17.011Z,100679.68
2023-05-18T08:07:21.076Z,100669.78
2023-05-18T08:08:25.607Z,100670.98
2023-05-18T08:09:29.929Z,100671.97
2023-05-18T08:10:33.354Z,100674.14
2023-05-18T08:11:37.799Z,100668.81
2023-05-18T08:12:42.648Z,100657.50
2023-05-18T08:13:46.689Z,100670.94
2023-05-18T08:14:50.286Z,100670.11
2023-05-18T08:16:03.042Z,100667.28
2023-05-18T08:16:57.906Z,100661.09
2023-05-18T08:18:01.317Z,100666.10
2023-05-18T08:19:05.164Z,100662.41
2023-05-18T08:20:16.537Z,100658.98
2023-05-18T08:21:24.079Z,100652.64
2023-05-18T08:22:30.689Z,100666.20
2023-05-18T08:23:34.846Z,100654.63
2023-05-18T08:24:38.579Z,100667.53
2023-05-18T08:25:42.600Z,100668.56
2023-05-18T08:26:46.469Z,100662.66
2023-05-18T08:27:50.159Z,100655.67
2023-05-18T08:28:53.936Z,100657.23
2023-05-18T08:29:56.815Z,100664.76
2023-05-18T08:31:02.196Z,100668.25
2023-05-18T08:32:07.556Z,100662.09
2023-05-18T08:33:11.210Z,100657.77
2023-05-18T08:34:14.509Z,100661.45
2023-05-18T08:35:17.370Z,100660.00
2023-05-18T08:36:20.702Z,100662.02
2023-05-18T08:37:27.341Z,100663.41
2023-05-18T08:38:30.904Z,100660.25
2023-05-18T08:39:37.237Z,100659.25
2023-05-18T08:40:45.857Z,100663.66
2023-05-18T08:42:04.168Z,100660.66
2023-05-18T08:43:21.376Z,100656.92
2023-05-18T08:44:29.757Z,100659.51
2023-05-18T08:45:36.197Z,100651.34
2023-05-18T08:46:43.537Z,100654.64
2023-05-18T08:47:48.068Z,100656.05
2023-05-18T08:48:53.648Z,100655.36
2023-05-18T08:49:58.457Z,100655.83
2023-05-18T08:51:02.841Z,100652.55
2023-05-18T08:52:10.149Z,100651.36
2023-05-18T08:53:14.884Z,100650.68
2023-05-18T08:54:21.126Z,100647.20
2023-05-18T08:55:24.703Z,100649.08
2023-05-18T08:56:29.145Z,100650.16
2023-05-18T08:57:34.441Z,100642.23
2023-05-18T08:58:39.900Z,100640.70
2023-05-18T08:59:44.344Z,100647.62
2023-05-18T09:00:58.090Z,100652.33
2023-05-18T09:02:01.617Z,100643.53
2023-05-18T09:03:06.364Z,100642.03
2023-05-18T09:04:10.385Z,100642.47
2023-05-18T09:05:15.181Z,100635.44
2023-05-18T09:06:18.510Z,100642.36
2023-05-18T09:07:25.095Z,100641.52
2023-05-18T09:08:29.314Z,100643.85
2023-05-18T09:09:33.594Z,100644.13
2023-05-18T09:10:36.571Z,100632.61
2023-05-18T09:11:39.492Z,100631.37
2023-05-18T09:12:42.696Z,100641.00
2023-05-18T09:13:45.475Z,100625.59
2023-05-18T09:14:49.228Z,100634.60
2023-05-18T09:15:57.420Z,100627.30
2023-05-18T09:17:01.308Z,100635.41
2023-05-18T09:18:04.650Z,100633.81
2023-05-18T09:19:07.211Z,100631.34
2023-05-18T09:20:09.763Z,100623.45
2023-05-18T09:21:15.331Z,100626.91
2023-05-18T09:22:18.959Z,100630.50
2023-05-18T09:23:22.750Z,100635.55
2023-05-18T09:24:25.372Z,100635.44
2023-05-18T09:25:30.486Z,100623.59
2023-05-18T09:26:34.422Z,100629.41
2023-05-18T09:27:40.037Z,100621.69
2023-05-18T09:28:44.356Z,100625.14
2023-05-18T09:30:00.401Z,100623.11
2023-05-18T09:31:09.605Z,100618.11
2023-05-18T09:32:13.355Z,100612.12
2023-05-18T09:33:19.378Z,100621.36
2023-05-18T09:34:23.208Z,100621.89
2023-05-18T09:35:26.802Z,100615.92
2023-05-18T09:36:34.142Z,100622.48
2023-05-18T09:37:37.880Z,100625.23
2023-05-18T09:38:48.919Z,100625.87
2023-05-18T09:40:02.428Z,100631.25
2023-05-18T09:41:07.617Z,100619.14
2023-05-18T09:42:11.330Z,100622.84
2023-05-18T09:43:14.802Z,100618.09
2023-05-18T09:44:18.957Z,100620.48
2023-05-18T09:45:27.478Z,100620.33
2023-05-18T09:46:36.382Z,100621.66
2023-05-18T09:47:39.725Z,100618.81
2023-05-18T09:48:44.063Z,100621.20
2023-05-18T09:49:46.629Z,100609.70
2023-05-18T09:50:52.398Z,100607.84
2023-05-18T09:51:56.133Z,100612.45
2023-05-18T09:53:00.587Z,100603.60
2023-05-18T09:54:07.730Z,100606.75
2023-05-18T09:55:13.269Z,100600.98
2023-05-18T09:56:17.596Z,100602.06
2023-05-18T09:57:21.095Z,100608.73
2023-05-18T09:58:26.155Z,100608.28
2023-05-18T09:59:30.181Z,100603.69
2023-05-18T10:00:38.729Z,100594.00
2023-05-18T10:02:03.470Z,100606.69
2023-05-18T10:03:13.233Z,100596.83
2023-05-18T10:04:18.719Z,100603.28
2023-05-18T10:05:24.573Z,100600.46
2023-05-18T10:06:29.473Z,100606.00
2023-05-18T10:07:36.274Z,100599.61
2023-05-18T10:08:40.209Z,100595.91
2023-05-18T10:09:45.184Z,100588.90
2023-05-18T10:10:51.282Z,100600.59
2023-05-18T10:11:54.692Z,100589.46
2023-05-18T10:13:00.282Z,100583.09
2023-05-18T10:14:04.782Z,100590.18
2023-05-18T10:15:11.315Z,100594.97
2023-05-18T10:16:16.298Z,100592.27
2023-05-18T10:17:21.005Z,100589.02
2023-05-18T10:18:26.505Z,100592.61
2023-05-18T10:19:31.030Z,100590.22
2023-05-18T10:20:34.006Z,100583.72
2023-05-18T10:21:37.826Z,100591.02
2023-05-18T10:22:42.281Z,100588.61
2023-05-18T10:23:48.424Z,100585.33
2023-05-18T10:24:54.253Z,100585.91
2023-05-18T10:26:00.141Z,100591.51
2023-05-18T10:27:06.007Z,100583.63
2023-05-18T10:28:11.291Z,100586.47
2023-05-18T10:29:15.878Z,100589.63
2023-05-18T10:30:20.596Z,100585.29
2023-05-18T10:31:26.868Z,100578.88
2023-05-18T10:32:33.449Z,100577.08
2023-05-18T10:33:36.580Z,100575.13
2023-05-18T10:34:43.738Z,100570.92
2023-05-18T10:35:50.735Z,100580.00
2023-05-18T10:36:54.790Z,100585.85
2023-05-18T10:38:00.282Z,100575.70
2023-05-18T10:39:04.305Z,100572.37
2023-05-18T10:40:09.337Z,100574.12
2023-05-18T10:41:13.293Z,100564.38
2023-05-18T10:42:17.116Z,100571.30
2023-05-18T10:43:24.105Z,100571.75
2023-05-18T10:44:27.791Z,100575.70
2023-05-18T10:45:33.184Z,100578.25
2023-05-18T10:46:37.533Z,100577.72
2023-05-18T10:47:42.974Z,100570.64
2023-05-18T10:48:52.090Z,100575.45
2023-05-18T10:49:55.960Z,100574.56
2023-05-18T10:51:00.933Z,100576.41
2023-05-18T10:52:04.746Z,100568.73
2023-05-18T10:53:11.280Z,100577.52
2023-05-18T10:54:15.282Z,100570.81
2023-05-18T10:55:19.774Z,100566.85
2023-05-18T10:56:24.918Z,100574.92
2023-05-18T10:57:35.234Z,100579.36
2023-05-18T10:58:39.148Z,100569.95
2023-05-18T10:59:45.464Z,100559.73
2023-05-18T11:00:52.724Z,100565.20
2023-05-18T11:02:00.059Z,100558.20
2023-05-18T11:03:04.839Z,100566.13
2023-05-18T11:04:08.785Z,100560.17
2023-05-18T11:05:13.788Z,100560.95
2023-05-18T11:06:22.566Z,100562.88
2023-05-18T11:07:27.679Z,100561.47
2023-05-18T11:08:33.120Z,100561.47
2023-05-18T11:09:37.482Z,100558.30
2023-05-18T11:10:44.036Z,100556.38
2023-05-18T11:11:55.412Z,100557.89
2023-05-18T11:13:01.793Z,100555.48
2023-05-18T11:14:05.296Z,100556.14
2023-05-18T11:15:09.331Z,100550.34
2023-05-18T11:16:12.874Z,100555.11
2023-05-18T11:17:21.343Z,100554.60
2023-05-18T11:18:43.146Z,100555.08
2023-05-18T11:20:10.954Z,100554.16
2023-05-18T11:21:22.585Z,100550.99
2023-05-18T11:22:29.850Z,100551.02
2023-05-18T11:23:33.486Z,100549.91
2023-05-18T11:24:37.519Z,100549.48
2023-05-18T11:25:42.894Z,100549.33
2023-05-18T11:26:46.630Z,100545.67
2023-05-18T11:27:52.310Z,100546.09
2023-05-18T11:28:59.798Z,100549.41
2023-05-18T11:30:15.140Z,100543.70
2023-05-18T11:31:09.099Z,100538.87
2023-05-18T11:32:30.071Z,100542.00
2023-05-18T11:33:30.433Z,100534.71
2023-05-18T11:34:41.861Z,100546.98
2023-05-18T11:36:05.313Z,100537.02
2023-05-18T11:37:10.102Z,100546.57
2023-05-18T11:38:18.357Z,100537.66
2023-05-18T11:39:25.828Z,100535.55
2023-05-18T11:40:49.730Z,100536.02
2023-05-18T11:42:12.341Z,100536.08
2023-05-18T11:43:20.490Z,100534.64
2023-05-18T11:44:25.594Z,100542.25
2023-05-18T11:45:28.078Z,100537.20
2023-05-18T11:46:31.175Z,100536.22
2023-05-18T11:47:35.101Z,100541.65
2023-05-18T11:48:40.267Z,100545.52
2023-05-18T11:49:49.224Z,100531.43
2023-05-18T11:50:59.703Z,100542.39
2023-05-18T11:52:08.639Z,100543.55
2023-05-18T11:53:19.261Z,100526.50
2023-05-18T11:54:24.898Z,100538.90
2023-05-18T11:55:30.342Z,100537.06
2023-05-18T11:56:34.564Z,100530.92
2023-05-18T11:57:40.702Z,100532.39
2023-05-18T11:58:44.414Z,100537.61
2023-05-18T11:59:48.983Z,100527.84
2023-05-18T12:00:52.980Z,100536.69
2023-05-18T12:02:04.698Z,100530.97
2023-05-18T12:03:08.767Z,100532.20
2023-05-18T12:04:12.905Z,100522.81
2023-05-18T12:05:16.825Z,100532.31
2023-05-18T12:07:38.241Z,100522.63
2023-05-18T12:08:43.641Z,100529.80
2023-05-18T12:09:46.684Z,100525.45
2023-05-18T12:10:50.097Z,100532.42
2023-05-18T12:11:53.562Z,100534.22
2023-05-18T12:13:00.024Z,100536.45
2023-05-18T12:14:06.894Z,100530.82
2023-05-18T12:15:17.253Z,100534.73
2023-05-18T12:16:24.319Z,100537.16
2023-05-18T12:17:42.306Z,100544.38
2023-05-18T12:18:52.786Z,100533.68
2023-05-18T12:19:58.256Z,100529.48
2023-05-18T12:21:03.555Z,100533.86
2023-05-18T12:22:10.489Z,100538.68
2023-05-18T12:23:14.938Z,100534.47
2023-05-18T12:24:19.690Z,100531.98
2023-05-18T12:25:24.459Z,100539.95
2023-05-18T12:26:30.266Z,100530.53
2023-05-18T12:27:35.455Z,100529.62
2023-05-18T12:28:38.620Z,100533.88
2023-05-18T12:29:46.402Z,100528.01
2023-05-18T12:30:53.271Z,100533.88
2023-05-18T12:31:56.871Z,100532.83
2023-05-18T12:33:00.830Z,100541.81
2023-05-18T12:34:04.149Z,100536.16